Time;durP1;ratioP1;P1;durP2;ratioP2;P2;SDS_P1;SDS_P2;PMS_P1;PMS_P2;Temp;Humidity;BMP_temperature;BMP_pressure;BME280_temperature;BME280_humidity;BME280_pressure;Samples;Min_cycle;Max_cycle;Signal;HPM_P1;HPM_P2
2021/09/21 00:01:56;;;;;;;3.50;1.60;;;;;;;14.59;57.74;100601.19;117427;1185;23566;-59
2021/09/21 00:04:27;;;;;;;2.40;1.60;;;;;;;14.60;57.64;100603.29;117281;1185;21915;-59
2021/09/21 00:06:55;;;;;;;2.60;1.50;;;;;;;14.57;57.73;100606.02;117324;1186;21860;-59
2021/09/21 00:09:24;;;;;;;4.00;1.70;;;;;;;14.56;57.73;100606.75;117324;1185;21845;-60
2021/09/21 00:11:54;;;;;;;3.40;1.60;;;;;;;14.54;57.75;100605.19;117301;1185;23875;-59
2021/09/21 00:14:22;;;;;;;2.40;1.40;;;;;;;14.53;57.72;100608.06;117317;1179;21994;-60
2021/09/21 00:16:51;;;;;;;4.40;1.50;;;;;;;14.49;57.82;100611.86;117422;1185;23557;-59
2021/09/21 00:19:19;;;;;;;2.20;1.20;;;;;;;14.48;57.73;100602.17;117483;1182;21855;-59
2021/09/21 00:21:47;;;;;;;2.90;1.70;;;;;;;14.50;57.85;100604.23;117444;1184;21848;-59
2021/09/21 00:24:35;;;;;;;3.20;1.50;;;;;;;14.53;57.70;100607.88;117302;1186;22907;-59
2021/09/21 00:27:03;;;;;;;3.00;1.50;;;;;;;14.55;57.68;100607.13;117323;1185;21842;-59
2021/09/21 00:29:32;;;;;;;3.70;2.10;;;;;;;14.53;57.67;100607.17;117353;1182;23534;-59
2021/09/21 00:32:00;;;;;;;3.30;1.70;;;;;;;14.52;57.69;100606.84;117269;1184;21863;-59
2021/09/21 00:34:38;;;;;;;4.10;1.50;;;;;;;14.51;57.69;100616.94;117141;1182;22739;-59
2021/09/21 00:37:08;;;;;;;2.70;1.60;;;;;;;14.52;57.69;100620.98;117329;1185;23462;-59
2021/09/21 00:39:36;;;;;;;3.10;1.50;;;;;;;14.50;57.67;100613.26;117418;1181;21848;-59
2021/09/21 00:42:05;;;;;;;3.90;2.00;;;;;;;14.48;57.62;100615.42;117384;1189;21845;-59
2021/09/21 00:44:35;;;;;;;2.70;1.60;;;;;;;14.44;57.67;100615.51;117335;1181;24152;-60
2021/09/21 00:47:04;;;;;;;3.50;1.80;;;;;;;14.44;57.82;100618.16;117405;1184;21864;-59
2021/09/21 00:49:35;;;;;;;2.20;1.40;;;;;;;14.43;57.70;100614.12;117299;1188;21888;-59
2021/09/21 00:52:04;;;;;;;2.60;1.50;;;;;;;14.44;57.66;100611.80;117256;1185;24163;-60
2021/09/21 00:54:32;;;;;;;2.70;1.60;;;;;;;14.45;57.71;100611.97;117305;1185;23441;-60
2021/09/21 00:57:01;;;;;;;4.60;1.60;;;;;;;14.45;57.76;100611.61;117420;1185;23563;-59
2021/09/21 00:59:29;;;;;;;2.60;1.60;;;;;;;14.47;57.66;100608.23;117057;1185;21858;-60
2021/09/21 01:01:57;;;;;;;3.10;1.80;;;;;;;14.46;57.73;100606.11;117250;1185;23567;-59
2021/09/21 01:04:25;;;;;;;2.80;1.40;;;;;;;14.44;57.69;100605.10;117310;1185;23531;-60
2021/09/21 01:06:53;;;;;;;2.80;1.70;;;;;;;14.37;57.82;100606.67;117365;1185;23018;-59
2021/09/21 01:09:22;;;;;;;2.70;1.60;;;;;;;14.36;57.81;100608.98;117276;1182;21989;-59
2021/09/21 01:11:56;;;;;;;5.90;1.70;;;;;;;14.36;57.80;100612.52;117390;1185;22620;-59
2021/09/21 01:14:25;;;;;;;3.90;1.80;;;;;;;14.35;57.79;100611.85;117286;1186;21897;-59
2021/09/21 01:16:56;;;;;;;2.30;1.30;;;;;;;14.35;57.87;100618.73;117270;1185;23620;-59
2021/09/21 01:19:24;;;;;;;2.20;1.50;;;;;;;14.32;57.87;100617.75;117364;1185;23557;-60
2021/09/21 01:21:52;;;;;;;2.70;1.60;;;;;;;14.31;57.84;100616.02;117360;1183;23531;-59
2021/09/21 01:24:22;;;;;;;2.30;1.60;;;;;;;14.28;57.72;100615.38;117359;1185;23542;-59
2021/09/21 01:26:50;;;;;;;2.40;1.50;;;;;;;14.19;57.64;100614.70;117378;1185;21845;-58
2021/09/21 01:29:19;;;;;;;2.20;1.70;;;;;;;14.15;57.92;100617.95;117353;1188;23567;-59
2021/09/21 01:31:48;;;;;;;2.90;1.60;;;;;;;14.17;57.76;100614.75;117365;1185;21858;-59
2021/09/21 01:34:18;;;;;;;2.70;1.70;;;;;;;14.18;57.77;100612.79;117279;1176;23544;-59
2021/09/21 01:36:46;;;;;;;3.10;1.70;;;;;;;14.20;57.70;100613.27;117328;1183;21859;-59
2021/09/21 01:39:14;;;;;;;2.80;1.60;;;;;;;14.22;57.73;100613.73;117310;1185;23569;-59
2021/09/21 01:41:44;;;;;;;4.60;2.00;;;;;;;14.26;57.76;100617.88;117349;1185;23577;-59
2021/09/21 01:44:18;;;;;;;2.40;1.60;;;;;;;14.26;57.66;100616.83;117316;1185;22919;-59
2021/09/21 01:47:03;;;;;;;2.70;1.80;;;;;;;14.26;57.70;100621.23;117285;1185;23545;-59
2021/09/21 01:49:44;;;;;;;3.30;1.70;;;;;;;14.26;57.67;100623.35;117389;1182;22300;-59
2021/09/21 01:52:19;;;;;;;3.70;1.90;;;;;;;14.25;57.63;100625.48;117396;1184;22899;-59
2021/09/21 01:55:06;;;;;;;2.70;2.10;;;;;;;14.22;57.54;100628.04;117281;1185;22982;-59
2021/09/21 02:00:23;;;;;;;3.40;2.30;;;;;;;14.16;57.61;100628.71;117380;1183;23537;-59
2021/09/21 02:02:52;;;;;;;2.80;2.10;;;;;;;14.17;57.61;100630.27;117355;1182;22071;-59
2021/09/21 02:05:20;;;;;;;3.00;2.00;;;;;;;14.15;57.64;100635.63;117305;1182;22914;-59
2021/09/21 02:07:48;;;;;;;3.20;2.70;;;;;;;14.15;57.60;100634.38;117334;1183;23545;-59
2021/09/21 02:10:20;;;;;;;4.70;2.60;;;;;;;14.13;57.62;100633.90;117317;1185;23557;-59
2021/09/21 02:13:08;;;;;;;4.20;2.70;;;;;;;14.07;57.63;100633.33;117265;1189;21861;-59
2021/09/21 02:15:56;;;;;;;3.70;2.80;;;;;;;14.05;57.63;100631.98;117293;1182;23553;-59
2021/09/21 02:18:25;;;;;;;3.60;2.70;;;;;;;14.02;57.70;100633.44;117376;1185;23372;-59
2021/09/21 02:20:56;;;;;;;9.20;3.30;;;;;;;13.95;57.75;100638.89;117333;1183;21847;-59
2021/09/21 02:23:25;;;;;;;4.00;2.70;;;;;;;13.94;57.76;100639.06;117348;1182;23557;-59
2021/09/21 02:25:53;;;;;;;4.10;2.80;;;;;;;13.94;57.64;100636.78;117450;1182;22648;-59
2021/09/21 02:28:41;;;;;;;6.50;3.30;;;;;;;13.93;57.66;100636.80;117274;1185;22958;-59
2021/09/21 02:31:29;;;;;;;4.50;3.10;;;;;;;13.93;57.74;100636.98;117297;1186;22174;-59
2021/09/21 02:34:08;;;;;;;5.00;3.50;;;;;;;13.87;57.73;100641.02;117310;1185;23541;-58
2021/09/21 02:36:40;;;;;;;5.20;3.00;;;;;;;13.81;57.88;100647.47;117314;1186;21867;-59
2021/09/21 02:39:09;;;;;;;5.50;2.90;;;;;;;13.77;57.88;100650.20;117252;1185;21857;-58
2021/09/21 02:41:38;;;;;;;5.60;3.00;;;;;;;13.71;57.85;100655.78;117307;1182;21983;-58
2021/09/21 02:44:07;;;;;;;3.90;2.90;;;;;;;13.74;57.77;100660.87;117347;1185;23637;-56
2021/09/21 02:46:42;;;;;;;4.70;2.80;;;;;;;13.71;57.84;100664.44;117289;1185;23531;-56
2021/09/21 02:49:10;;;;;;;3.90;2.70;;;;;;;13.69;57.73;100666.05;117307;1185;21845;-56
2021/09/21 02:51:38;;;;;;;4.10;2.90;;;;;;;13.70;57.82;100669.73;117288;1185;21868;-56
2021/09/21 02:54:09;;;;;;;4.10;2.60;;;;;;;13.66;57.78;100670.90;117326;1184;22903;-56
2021/09/21 02:56:40;;;;;;;4.20;2.50;;;;;;;13.61;57.62;100674.52;117266;1182;23544;-56
2021/09/21 02:59:08;;;;;;;3.80;2.40;;;;;;;13.57;57.66;100676.54;117322;1185;23438;-56
2021/09/21 03:01:39;;;;;;;3.60;2.50;;;;;;;13.54;57.75;100679.60;117309;1182;23541;-56
2021/09/21 03:04:13;;;;;;;3.60;2.60;;;;;;;13.49;57.66;100683.05;117356;1182;22619;-56
2021/09/21 03:06:46;;;;;;;4.20;2.30;;;;;;;13.48;57.70;100684.99;117225;1185;23446;-56
2021/09/21 03:09:36;;;;;;;4.10;2.50;;;;;;;13.41;57.78;100685.12;117237;1185;23444;-56
2021/09/21 03:17:49;;;;;;;4.20;2.50;;;;;;;13.27;57.58;100684.11;117254;1188;22917;-56
2021/09/21 03:20:17;;;;;;;3.10;2.30;;;;;;;13.23;57.80;100687.38;117249;1185;23441;-61
2021/09/21 03:23:05;;;;;;;4.60;2.20;;;;;;;13.23;57.58;100690.38;117359;1186;21854;-60
2021/09/21 03:25:53;;;;;;;4.00;2.40;;;;;;;13.18;57.57;100696.80;117268;1188;23616;-60
2021/09/21 03:28:22;;;;;;;3.90;2.20;;;;;;;13.15;57.55;100702.67;117295;1189;23586;-61
2021/09/21 03:30:50;;;;;;;4.20;2.50;;;;;;;13.16;57.56;100705.66;117274;1189;21902;-60
2021/09/21 03:33:34;;;;;;;4.40;2.40;;;;;;;13.15;57.53;100709.70;117247;1183;23545;-60
2021/09/21 03:36:04;;;;;;;3.90;2.60;;;;;;;13.14;57.63;100707.96;117311;1185;24229;-60
2021/09/21 03:38:32;;;;;;;8.50;2.50;;;;;;;13.13;57.56;100706.94;117324;1186;22613;-60
2021/09/21 03:41:20;;;;;;;3.30;1.90;;;;;;;13.11;57.58;100711.54;117255;1185;22920;-60
2021/09/21 03:43:49;;;;;;;5.70;2.50;;;;;;;13.09;57.52;100708.39;117303;1180;21920;-61
2021/09/21 03:46:17;;;;;;;5.80;2.70;;;;;;;13.07;57.77;100711.41;117328;1183;23621;-60
2021/09/21 03:48:46;;;;;;;3.90;2.60;;;;;;;13.02;57.74;100710.27;117344;1185;23560;-56
2021/09/21 03:51:15;;;;;;;4.00;2.40;;;;;;;12.95;57.74;100714.83;117295;1185;21858;-56
2021/09/21 03:53:45;;;;;;;3.70;2.10;;;;;;;12.87;57.68;100711.75;117314;1186;21860;-60
2021/09/21 03:56:14;;;;;;;4.30;2.60;;;;;;;12.80;57.76;100711.88;117170;1186;21860;-55
2021/09/21 03:58:42;;;;;;;3.00;2.30;;;;;;;12.72;57.71;100707.10;117348;1185;23439;-55
2021/09/21 04:01:10;;;;;;;4.60;2.60;;;;;;;12.59;57.65;100707.45;117227;1185;22983;-55
2021/09/21 04:03:39;;;;;;;3.40;2.50;;;;;;;12.48;57.53;100711.69;117266;1185;23564;-55
2021/09/21 04:06:08;;;;;;;7.70;2.80;;;;;;;12.33;57.68;100721.39;118142;1185;23528;-56
2021/09/21 04:08:36;;;;;;;6.00;3.10;;;;;;;12.32;57.79;100724.58;117222;1189;21846;-56
2021/09/21 04:11:04;;;;;;;4.30;2.80;;;;;;;12.28;57.82;100724.63;118074;1185;21896;-55
2021/09/21 04:13:34;;;;;;;4.20;3.10;;;;;;;12.26;57.67;100726.23;117295;1186;23614;-55
2021/09/21 04:16:02;;;;;;;4.70;3.00;;;;;;;12.22;57.46;100731.92;117371;1185;21872;-56
2021/09/21 04:18:31;;;;;;;3.40;2.60;;;;;;;12.14;57.57;100732.20;117384;1185;21857;-55
2021/09/21 04:20:59;;;;;;;3.10;2.50;;;;;;;12.04;57.48;100735.31;117336;1185;23544;-56
2021/09/21 04:23:27;;;;;;;6.50;3.60;;;;;;;11.97;57.64;100733.27;117258;1185;21858;-55
2021/09/21 04:25:55;;;;;;;3.90;2.70;;;;;;;11.94;57.62;100736.99;117251;1186;21859;-56
2021/09/21 04:28:24;;;;;;;4.50;3.10;;;;;;;11.90;57.63;100734.75;117317;1180;21896;-55
2021/09/21 04:30:52;;;;;;;6.10;3.40;;;;;;;11.88;57.69;100740.41;117430;1185;22612;-56
2021/09/21 04:33:21;;;;;;;6.00;3.40;;;;;;;11.84;57.83;100740.80;117358;1182;22915;-55
2021/09/21 04:35:52;;;;;;;4.80;3.60;;;;;;;11.79;57.77;100733.65;117262;1185;22955;-55
2021/09/21 04:38:20;;;;;;;5.20;3.90;;;;;;;11.71;57.85;100736.37;117174;1185;21969;-55
2021/09/21 04:40:49;;;;;;;6.90;3.80;;;;;;;11.67;57.86;100741.70;117324;1186;23570;-55
2021/09/21 04:43:17;;;;;;;5.20;3.30;;;;;;;11.65;57.76;100744.72;117244;1189;21859;-56
2021/09/21 04:45:45;;;;;;;10.10;3.60;;;;;;;11.64;57.81;100748.23;117317;1185;23579;-55
2021/09/21 04:48:13;;;;;;;6.00;3.50;;;;;;;11.68;58.09;100747.14;117342;1185;21862;-55
2021/09/21 04:50:41;;;;;;;8.20;4.20;;;;;;;11.75;58.01;100748.64;117362;1185;23544;-55
2021/09/21 04:53:10;;;;;;;6.60;3.50;;;;;;;11.80;58.03;100746.30;117287;1185;23557;-56
2021/09/21 04:55:39;;;;;;;4.80;3.70;;;;;;;11.84;58.20;100746.44;117370;1181;23545;-55
2021/09/21 04:58:07;;;;;;;5.00;3.50;;;;;;;11.88;58.17;100745.88;117331;1185;21854;-55
2021/09/21 05:00:36;;;;;;;5.00;3.70;;;;;;;11.92;58.14;100746.51;117401;1185;23554;-56
2021/09/21 05:03:04;;;;;;;5.10;3.70;;;;;;;11.98;58.28;100746.28;117375;1186;23540;-57
2021/09/21 05:05:32;;;;;;;4.30;3.10;;;;;;;12.05;58.16;100748.14;117286;1185;22293;-57
2021/09/21 05:08:20;;;;;;;6.10;3.50;;;;;;;12.12;58.36;100748.23;117299;1185;22907;-56
2021/09/21 05:10:48;;;;;;;5.00;3.40;;;;;;;12.20;58.17;100746.03;117244;1183;22622;-56
2021/09/21 05:13:18;;;;;;;4.60;3.10;;;;;;;12.27;58.29;100748.77;117258;1185;23566;-55
2021/09/21 05:15:46;;;;;;;5.80;2.80;;;;;;;12.34;58.42;100753.92;117308;1188;23567;-56
2021/09/21 05:18:15;;;;;;;4.10;2.90;;;;;;;12.43;58.59;100758.39;117322;1182;24175;-56
2021/09/21 05:20:44;;;;;;;4.80;3.00;;;;;;;12.48;58.49;100761.48;117333;1185;21859;-56
2021/09/21 05:23:12;;;;;;;4.10;2.60;;;;;;;12.56;58.28;100764.02;117333;1185;23006;-55
2021/09/21 05:25:41;;;;;;;3.70;2.60;;;;;;;12.61;58.40;100760.40;117261;1185;23463;-55
2021/09/21 05:28:09;;;;;;;4.20;2.80;;;;;;;12.65;58.46;100761.95;117382;1185;21845;-55
2021/09/21 05:30:37;;;;;;;4.20;2.60;;;;;;;12.66;58.30;100763.34;117269;1185;24165;-55
2021/09/21 05:33:05;;;;;;;3.30;2.50;;;;;;;12.66;58.42;100766.67;117324;1181;21896;-56
2021/09/21 05:35:35;;;;;;;4.60;2.50;;;;;;;12.71;58.43;100772.42;117345;1182;23666;-56
2021/09/21 05:38:03;;;;;;;4.40;3.00;;;;;;;12.79;58.46;100770.89;117338;1183;21872;-56
2021/09/21 05:40:31;;;;;;;4.50;2.80;;;;;;;12.89;58.49;100769.49;117325;1186;21856;-56
2021/09/21 05:43:00;;;;;;;4.20;2.80;;;;;;;12.97;58.69;100764.81;117289;1183;23558;-56
2021/09/21 05:45:28;;;;;;;3.90;2.60;;;;;;;13.09;58.59;100762.13;117306;1184;23547;-56
2021/09/21 05:48:01;;;;;;;4.00;2.70;;;;;;;13.20;58.44;100763.37;117263;1186;23545;-56
2021/09/21 05:50:29;;;;;;;3.90;2.50;;;;;;;13.28;58.51;100767.10;117270;1186;23529;-56
2021/09/21 05:52:57;;;;;;;4.10;2.00;;;;;;;13.36;58.56;100773.48;117378;1185;24149;-56
2021/09/21 05:55:28;;;;;;;3.30;2.20;;;;;;;13.46;58.52;100773.88;117260;1186;21848;-56
2021/09/21 05:57:56;;;;;;;3.40;2.20;;;;;;;13.55;58.71;100772.48;117288;1186;23523;-56
2021/09/21 06:00:25;;;;;;;4.10;2.30;;;;;;;13.63;58.68;100771.80;117316;1185;23586;-56
2021/09/21 06:02:54;;;;;;;4.30;2.00;;;;;;;13.66;58.54;100773.68;117385;1185;21863;-56
2021/09/21 06:05:22;;;;;;;2.90;1.80;;;;;;;13.71;58.54;100776.78;117298;1186;23541;-56
2021/09/21 06:07:51;;;;;;;3.90;2.00;;;;;;;13.78;58.58;100780.17;117328;1182;23542;-56
2021/09/21 06:10:21;;;;;;;4.90;1.90;;;;;;;13.85;58.66;100782.68;117317;1183;23442;-56
2021/09/21 06:12:49;;;;;;;3.00;1.60;;;;;;;13.91;58.61;100784.33;117417;1185;22909;-56
2021/09/21 06:15:19;;;;;;;2.50;1.50;;;;;;;13.95;58.55;100781.77;117295;1186;23573;-57
2021/09/21 06:18:08;;;;;;;2.40;1.50;;;;;;;13.97;58.81;100776.45;117312;1180;21855;-58
2021/09/21 06:20:39;;;;;;;2.90;1.50;;;;;;;14.01;58.70;100778.31;117136;1186;22745;-56
2021/09/21 06:23:27;;;;;;;2.80;1.20;;;;;;;14.05;58.82;100780.52;117277;1189;21850;-57
2021/09/21 06:25:58;;;;;;;2.00;1.50;;;;;;;14.10;58.81;100783.95;117301;1183;23542;-57
2021/09/21 06:28:26;;;;;;;1.70;1.10;;;;;;;14.16;58.89;100786.66;117235;1182;21843;-56
2021/09/21 06:30:54;;;;;;;2.30;1.00;;;;;;;14.20;58.73;100786.91;117237;1186;24162;-56
2021/09/21 06:33:24;;;;;;;2.30;1.00;;;;;;;14.20;58.62;100785.69;117299;1186;22621;-55
2021/09/21 06:35:52;;;;;;;1.80;1.10;;;;;;;14.17;58.55;100788.04;117292;1185;23467;-55
2021/09/21 06:38:21;;;;;;;2.20;1.10;;;;;;;14.12;58.47;100791.67;117189;1185;23560;-55
2021/09/21 06:40:49;;;;;;;2.10;1.00;;;;;;;14.06;58.44;100790.73;117129;1185;21856;-54
2021/09/21 06:43:17;;;;;;;1.50;0.90;;;;;;;14.00;58.58;100789.61;117231;1185;23449;-54
2021/09/21 06:45:47;;;;;;;;;;;;;;;13.98;58.48;100794.08;117313;1186;23630;-56
2021/09/21 06:48:16;;;;;;;2.20;0.90;;;;;;;13.95;58.66;100793.06;117385;1185;23542;-57
2021/09/21 06:50:45;;;;;;;2.00;1.00;;;;;;;13.93;58.63;100787.80;117245;1189;21867;-57
2021/09/21 06:53:13;;;;;;;1.60;1.00;;;;;;;13.92;58.68;100791.53;117274;1185;21858;-57
2021/09/21 06:55:41;;;;;;;2.80;1.30;;;;;;;13.91;58.66;100793.83;117291;1185;21860;-57
2021/09/21 06:58:10;;;;;;;1.60;0.80;;;;;;;13.94;58.75;100793.61;117100;1185;22648;-57
2021/09/21 07:00:39;;;;;;;2.10;0.90;;;;;;;13.97;58.79;100794.95;117362;1185;21856;-55
2021/09/21 07:03:07;;;;;;;6.00;0.90;;;;;;;14.03;58.87;100797.86;117126;1182;24680;-55
2021/09/21 07:05:35;;;;;;;0.90;0.60;;;;;;;14.08;58.83;100791.74;117267;1183;22611;-54
2021/09/21 07:08:04;;;;;;;3.60;0.70;;;;;;;14.10;58.80;100795.61;117298;1183;23565;-54
2021/09/21 07:10:34;;;;;;;0.70;0.40;;;;;;;14.11;58.76;100795.05;117233;1185;21852;-55
2021/09/21 07:13:02;;;;;;;1.80;0.80;;;;;;;14.12;58.77;100793.80;117280;1184;21873;-54
2021/09/21 07:15:32;;;;;;;1.10;0.60;;;;;;;14.15;58.69;100797.45;117113;1186;23701;-54
2021/09/21 07:18:01;;;;;;;1.00;0.60;;;;;;;14.16;58.64;100798.84;117298;1185;23557;-54
2021/09/21 07:20:29;;;;;;;1.60;0.80;;;;;;;14.12;58.73;100797.48;117305;1183;24163;-54
2021/09/21 07:22:59;;;;;;;1.80;0.80;;;;;;;14.14;58.91;100801.86;117212;1186;23593;-57
2021/09/21 07:25:28;;;;;;;1.30;0.50;;;;;;;14.16;58.98;100800.94;117353;1182;22917;-54
2021/09/21 07:27:57;;;;;;;1.10;0.60;;;;;;;14.19;58.93;100799.65;117373;1186;21919;-55
2021/09/21 07:30:34;;;;;;;0.90;0.50;;;;;;;14.25;58.93;100798.46;117356;1176;23567;-55
2021/09/21 07:33:04;;;;;;;2.20;0.90;;;;;;;14.17;59.23;100801.64;117269;1185;23560;-55
2021/09/21 07:35:33;;;;;;;1.20;0.60;;;;;;;14.17;59.50;100805.16;117238;1186;23542;-54
2021/09/21 07:38:02;;;;;;;1.50;0.70;;;;;;;14.41;59.18;100801.85;117267;1183;21903;-55
2021/09/21 07:40:34;;;;;;;1.10;0.50;;;;;;;14.56;59.22;100798.52;117244;1181;23554;-56
2021/09/21 07:43:04;;;;;;;3.60;0.80;;;;;;;14.75;59.37;100800.59;117314;1185;21896;-55
2021/09/21 07:45:35;;;;;;;0.90;0.70;;;;;;;15.00;59.56;100793.48;117273;1182;22730;-55
2021/09/21 07:48:04;;;;;;;2.00;1.10;;;;;;;15.30;59.77;100790.62;117351;1183;23460;-55
2021/09/21 07:50:32;;;;;;;1.80;1.30;;;;;;;15.68;60.00;100788.05;117378;1189;21908;-55
2021/09/21 07:53:00;;;;;;;2.20;1.10;;;;;;;16.09;59.88;100780.40;117336;1184;21859;-57
2021/09/21 07:55:28;;;;;;;3.30;1.30;;;;;;;16.49;60.09;100776.72;117297;1183;24182;-56
2021/09/21 07:57:57;;;;;;;1.50;1.10;;;;;;;16.97;60.15;100774.02;117139;1185;23569;-55
2021/09/21 08:00:27;;;;;;;2.20;0.80;;;;;;;17.32;59.82;100771.27;117284;1182;22818;-58
2021/09/21 08:02:59;;;;;;;2.80;0.60;;;;;;;17.52;59.53;100767.40;117249;1182;23586;-57
2021/09/21 08:05:28;;;;;;;2.50;0.70;;;;;;;17.45;59.68;100770.27;117389;1184;23624;-56
2021/09/21 08:07:56;;;;;;;1.20;0.60;;;;;;;17.44;59.58;100769.80;117323;1183;23544;-58
2021/09/21 08:10:24;;;;;;;0.90;0.60;;;;;;;17.36;59.36;100771.51;117338;1185;23567;-55
2021/09/21 08:13:09;;;;;;;3.00;0.80;;;;;;;17.35;59.04;100777.21;117376;1182;23543;-57
2021/09/21 08:15:38;;;;;;;2.10;0.50;;;;;;;17.40;58.81;100773.31;117288;1182;22644;-57
2021/09/21 08:18:07;;;;;;;3.90;0.70;;;;;;;17.43;58.86;100767.52;117331;1183;23553;-55
2021/09/21 08:20:55;;;;;;;4.20;1.00;;;;;;;17.61;59.13;100768.15;117209;1185;21855;-55
2021/09/21 08:23:23;;;;;;;1.80;0.70;;;;;;;17.77;59.07;100775.20;117287;1184;23466;-58
2021/09/21 08:25:52;;;;;;;3.70;0.50;;;;;;;17.82;58.76;100775.56;117304;1186;23557;-59
2021/09/21 08:28:20;;;;;;;1.40;0.60;;;;;;;17.82;58.50;100781.59;117346;1185;21857;-56
2021/09/21 08:30:54;;;;;;;1.50;0.60;;;;;;;17.75;58.37;100780.80;117255;1185;23570;-57
2021/09/21 08:33:24;;;;;;;2.30;0.50;;;;;;;17.64;58.43;100773.20;117269;1185;23624;-55
2021/09/21 08:36:04;;;;;;;1.30;0.60;;;;;;;17.61;58.35;100773.31;117226;1185;23543;-56
2021/09/21 08:38:33;;;;;;;1.30;0.50;;;;;;;17.62;58.50;100770.97;117281;1185;21867;-56
2021/09/21 08:41:01;;;;;;;3.00;0.70;;;;;;;17.63;58.39;100769.52;117269;1182;23577;-57
2021/09/21 08:43:29;;;;;;;1.30;0.50;;;;;;;17.56;58.34;100773.98;117253;1185;21847;-56
2021/09/21 08:45:58;;;;;;;0.90;0.50;;;;;;;17.51;58.35;100771.86;117189;1186;23566;-56
2021/09/21 08:48:27;;;;;;;3.00;0.60;;;;;;;17.50;58.39;100770.30;117286;1185;23474;-56
2021/09/21 08:50:56;;;;;;;2.80;0.60;;;;;;;17.47;58.33;100775.20;117111;1187;23557;-57
2021/09/21 08:53:24;;;;;;;5.20;0.50;;;;;;;17.38;58.17;100775.69;117366;1181;23557;-56
2021/09/21 08:55:56;;;;;;;4.30;1.00;;;;;;;17.28;58.25;100776.54;117304;1185;23554;-57
2021/09/21 08:58:24;;;;;;;2.80;0.80;;;;;;;17.28;58.45;100770.86;117343;1186;23534;-56
2021/09/21 09:00:53;;;;;;;3.80;0.70;;;;;;;17.43;58.71;100765.41;117349;1183;22805;-57
2021/09/21 09:03:22;;;;;;;2.50;0.60;;;;;;;17.58;58.76;100764.00;117308;1183;23554;-57
2021/09/21 09:05:53;;;;;;;4.30;0.80;;;;;;;17.67;58.54;100759.75;117330;1179;22917;-57
2021/09/21 09:08:37;;;;;;;3.10;0.60;;;;;;;17.69;58.58;100760.92;117299;1186;23471;-57
2021/09/21 09:11:25;;;;;;;3.40;0.50;;;;;;;17.81;58.65;100766.89;117341;1183;21855;-57
2021/09/21 09:13:57;;;;;;;6.40;0.80;;;;;;;17.95;58.71;100765.33;117355;1182;22907;-57
2021/09/21 09:16:32;;;;;;;4.30;0.70;;;;;;;18.04;58.54;100765.75;117297;1182;22637;-56
2021/09/21 09:19:05;;;;;;;2.40;0.70;;;;;;;18.05;58.57;100765.01;117273;1186;23545;-56
2021/09/21 09:21:49;;;;;;;2.40;0.60;;;;;;;18.02;58.63;100765.46;117372;1185;23586;-58
2021/09/21 09:24:18;;;;;;;1.90;0.60;;;;;;;17.96;58.49;100764.23;117319;1185;21858;-57
2021/09/21 09:26:46;;;;;;;2.80;0.90;;;;;;;17.85;58.30;100765.36;117294;1185;23579;-58
2021/09/21 09:29:15;;;;;;;1.90;0.80;;;;;;;17.77;58.24;100766.15;117324;1186;21854;-58
2021/09/21 09:31:45;;;;;;;3.30;1.60;;;;;;;17.59;58.27;100769.30;117327;1186;23440;-56
2021/09/21 09:34:26;;;;;;;7.30;2.60;;;;;;;17.44;58.31;100768.39;117247;1189;21858;-56
2021/09/21 09:36:58;;;;;;;6.30;4.10;;;;;;;17.32;58.22;100768.61;117287;1185;21871;-56
2021/09/21 09:39:29;;;;;;;3.10;1.30;;;;;;;17.16;58.23;100770.95;117281;1186;22982;-57
2021/09/21 09:41:59;;;;;;;1.70;1.10;;;;;;;17.11;58.38;100770.20;117415;1186;22970;-57
2021/09/21 09:44:29;;;;;;;2.50;0.80;;;;;;;17.34;58.61;100773.15;117277;1186;23756;-57
2021/09/21 09:47:03;;;;;;;1.50;0.70;;;;;;;17.63;58.93;100771.64;117272;1186;22991;-57
2021/09/21 09:49:32;;;;;;;1.20;0.60;;;;;;;17.94;59.14;100770.02;117288;1189;21863;-58
2021/09/21 09:52:08;;;;;;;0.90;0.70;;;;;;;18.26;59.43;100769.70;117380;1185;21896;-57
2021/09/21 09:54:38;;;;;;;7.00;1.30;;;;;;;18.48;59.25;100766.20;117303;1183;22832;-59
2021/09/21 09:57:08;;;;;;;2.30;1.00;;;;;;;18.53;58.78;100767.95;117336;1182;23051;-57
2021/09/21 09:59:37;;;;;;;2.60;0.70;;;;;;;18.41;58.31;100775.20;117315;1186;22919;-58
2021/09/21 10:02:06;;;;;;;2.70;1.00;;;;;;;18.27;58.34;100777.14;117234;1188;21845;-57
2021/09/21 10:04:35;;;;;;;3.80;2.30;;;;;;;18.28;58.57;100771.95;117287;1185;23544;-58
2021/09/21 10:07:23;;;;;;;4.40;1.10;;;;;;;18.41;58.81;100778.55;117316;1185;23438;-59
2021/09/21 10:09:57;;;;;;;4.90;1.10;;;;;;;18.47;58.57;100784.36;117243;1182;22769;-58
2021/09/21 10:12:28;;;;;;;;;;;;;;;18.46;58.17;100785.47;117247;1182;22927;-58
2021/09/21 10:14:56;;;;;;;1.60;0.90;;;;;;;18.32;58.11;100782.80;117203;1186;23509;-57
2021/09/21 10:17:27;;;;;;;3.80;1.10;;;;;;;18.18;58.10;100789.89;117140;1189;23625;-58
2021/09/21 10:19:58;;;;;;;4.60;1.00;;;;;;;18.07;58.06;100790.88;117133;1182;23570;-58
2021/09/21 10:22:30;;;;;;;2.40;0.90;;;;;;;18.00;58.06;100787.37;117174;1185;23477;-57
2021/09/21 10:25:25;;;;;;;1.80;1.00;;;;;;;18.00;58.28;100790.74;117186;1186;21891;-56
2021/09/21 10:28:37;;;;;;;3.40;1.10;;;;;;;17.99;58.25;100792.91;117157;1185;21860;-56
2021/09/21 10:31:16;;;;;;;3.90;1.60;;;;;;;17.98;58.37;100801.27;117124;1183;23452;-57
2021/09/21 10:33:45;;;;;;;1.70;1.10;;;;;;;17.96;58.27;100797.42;117259;1185;22155;-56
2021/09/21 10:36:17;;;;;;;2.20;1.20;;;;;;;17.94;58.17;100799.63;117358;1185;23069;-56
2021/09/21 10:39:07;;;;;;;4.40;1.30;;;;;;;17.93;58.26;100798.96;117457;1185;21861;-56
2021/09/21 10:41:49;;;;;;;2.70;1.10;;;;;;;17.94;58.24;100793.61;117252;1182;21921;-57
2021/09/21 10:44:19;;;;;;;4.50;1.30;;;;;;;17.94;58.08;100795.17;117272;1183;24159;-57
2021/09/21 10:47:07;;;;;;;3.90;1.30;;;;;;;17.88;57.97;100798.98;117193;1188;23477;-57
2021/09/21 10:50:10;;;;;;;2.30;1.40;;;;;;;17.83;57.81;100800.39;117283;1185;21848;-57
2021/09/21 10:52:39;;;;;;;3.00;1.20;;;;;;;17.73;57.78;100802.33;117317;1182;23544;-56
2021/09/21 10:55:09;;;;;;;2.30;1.20;;;;;;;17.63;57.69;100804.63;117340;1185;21857;-58
2021/09/21 10:57:42;;;;;;;2.20;1.40;;;;;;;17.54;57.83;100802.10;117224;1185;23547;-56
2021/09/21 11:00:13;;;;;;;2.50;1.50;;;;;;;17.46;57.79;100798.11;117242;1186;21869;-57
2021/09/21 11:02:53;;;;;;;2.60;1.50;;;;;;;17.47;57.73;100800.21;117359;1186;21867;-58
2021/09/21 11:05:26;;;;;;;3.20;2.00;;;;;;;17.44;57.81;100798.70;117302;1177;22911;-57
2021/09/21 11:07:57;;;;;;;4.40;1.60;;;;;;;17.43;57.85;100802.83;117271;1185;22322;-57
2021/09/21 11:10:33;;;;;;;6.60;1.90;;;;;;;17.43;57.77;100804.07;117420;1182;22645;-57
2021/09/21 11:13:01;;;;;;;4.00;1.20;;;;;;;17.35;57.67;100799.21;117153;1183;21906;-56
2021/09/21 11:15:49;;;;;;;3.20;1.50;;;;;;;17.25;57.59;100798.45;117107;1185;21898;-57
2021/09/21 11:18:18;;;;;;;5.10;1.50;;;;;;;17.23;57.62;100803.48;117099;1183;22631;-56
2021/09/21 11:21:00;;;;;;;2.00;1.40;;;;;;;17.19;57.67;100801.68;117283;1185;23571;-56
2021/09/21 11:23:30;;;;;;;3.40;1.60;;;;;;;17.23;57.80;100802.09;117219;1183;23545;-55
2021/09/21 11:26:02;;;;;;;2.40;1.30;;;;;;;17.27;57.75;100804.08;117425;1186;23439;-56
2021/09/21 11:28:31;;;;;;;3.70;1.60;;;;;;;17.26;57.78;100804.80;117321;1186;21860;-56
2021/09/21 11:31:01;;;;;;;2.30;1.40;;;;;;;17.27;57.80;100806.02;117294;1186;23584;-58
2021/09/21 11:33:38;;;;;;;2.50;1.00;;;;;;;17.26;57.74;100807.32;117232;1182;23640;-58
2021/09/21 11:36:10;;;;;;;1.40;0.80;;;;;;;17.18;57.60;100804.37;117284;1182;22825;-57
2021/09/21 11:38:41;;;;;;;2.30;1.10;;;;;;;17.16;57.53;100811.20;117239;1185;23995;-56
2021/09/21 11:41:12;;;;;;;1.70;1.10;;;;;;;17.10;57.54;100812.97;117255;1185;23566;-57
2021/09/21 11:43:40;;;;;;;3.70;1.30;;;;;;;17.08;57.54;100821.71;117326;1186;21871;-58
2021/09/21 11:46:29;;;;;;;3.00;1.10;;;;;;;17.02;57.50;100813.04;117230;1186;22640;-59